Dairy, Oregon
Current Conditions -  °F | °C
As of 5:16 PM on Friday 21 Nov 2014 (Local Time) from KLMT Reporting Station
Overcast Overcast  
Wind Chill: 37°   Ceiling: 2700
Heat Index: 41°   Visibility: 10mi
Dew Point: 37°   Wind: 6mph
Humidity: 86%   Direction: 170°S
Pressure: 29.9"   Gusts: NA
Location:  42.23°N, 121.52°W
Report Text: KLMT 220116Z 17005KT 10SM BKN027 OVC035 05/03 A2990 RMK AO2 T00500028
Loading
Personal Weather Stations






























Interactive Weather Map New forecast layout! Learn more

10-Day Weather Forecast

Advertisements
Track Severe Weather on mobile